Etusivu
METAR-TAF:

METAR-TAF

Lentoasemat :

Stennis International Airport

Bay St. Louis, Mississippi, Yhdysvallat

Leveyspiiri: 30-22-04N, Pituuspiiri: 089-27-17W, korkeus merenpinnasta: 7 m

Tämänhetkinen sää

Tämä raportti tehtiin 51 minuuttia sitten, kello 23.50 UTC
Tuuli 6 kn kaakosta
Lämpötila 21°C
Kosteus 94%
Ilmanpaine 1018 hPa
Näkyvyys: 16.1 km
Muutamia pilviä 1000 ft:n korkeudessa

METAR: KHSA 272350Z 14006KT 10SM FEW010 21/20 A3006

Aika: 18:41 (00:41 UTC)


TAF: puuttuu

Säähavainnot ja -ennusteet yli 4000 lentoasemalta (METAR- ja TAF-raportit).

Käytössä olevat sääasemat on merkitty karttaan keltaisilla ja punaisilla pisteillä.

Aseta hiiri pisteen päälle nähdäksesi sääaseman nimen.

Klikkaa sitten nähdäksesi säähavainnot ja -ennusteet.

Kartan vaihtaminen: klikkaa mustalla rastilla varustettuja vihreitä pisteitä, niin voit zoomata sisään; viivalla varustettua vihreää pistettä, niin voit zoomata ulos tai vihreitä nuolia, niin pääset viereisille kartoille.


METAR-TAF: